createdAt,value
2022-10-07T00:09:36.097Z,0
2022-10-07T00:19:12.722Z,0
2022-10-07T00:28:48.882Z,0
2022-10-07T00:38:25.863Z,0
2022-10-07T00:48:03.078Z,0
2022-10-07T00:57:39.574Z,0
2022-10-07T01:07:16.511Z,0
2022-10-07T01:16:53.336Z,0
2022-10-07T01:26:30.002Z,0
2022-10-07T01:36:06.773Z,0
2022-10-07T01:45:43.377Z,0
2022-10-07T02:04:56.703Z,0
2022-10-07T02:14:33.898Z,0
2022-10-07T02:24:10.743Z,0
2022-10-07T02:33:47.750Z,0
2022-10-07T02:43:24.856Z,0
2022-10-07T03:02:38.732Z,0
2022-10-07T03:12:15.438Z,0
2022-10-07T03:21:52.702Z,0
2022-10-07T03:31:29.780Z,0
2022-10-07T03:41:05.870Z,0
2022-10-07T03:50:42.487Z,0
2022-10-07T04:00:19.006Z,0
2022-10-07T04:09:55.932Z,0
2022-10-07T04:19:33.068Z,0
2022-10-07T04:38:46.106Z,0
2022-10-07T04:58:00.162Z,0
2022-10-07T05:07:37.115Z,0
2022-10-07T05:17:13.810Z,0
2022-10-07T05:26:50.558Z,5.63
2022-10-07T05:36:27.342Z,11.25
2022-10-07T05:55:41.009Z,28.13
2022-10-07T06:14:55.328Z,73.13
2022-10-07T06:24:32.735Z,78.75
2022-10-07T06:34:10.153Z,101.25
2022-10-07T06:43:46.908Z,129.38
2022-10-07T06:53:24.473Z,151.88
2022-10-07T07:03:02.367Z,174.38
2022-10-07T07:12:39.803Z,180
2022-10-07T07:22:16.321Z,202.5
2022-10-07T07:31:53.459Z,174.38
2022-10-07T07:41:29.565Z,146.25
2022-10-07T07:51:06.161Z,146.25
2022-10-07T08:00:43.241Z,151.88
2022-10-07T08:10:20.150Z,151.88
2022-10-07T08:19:57.733Z,157.5
2022-10-07T08:29:34.665Z,163.13
2022-10-07T08:39:12.432Z,174.38
2022-10-07T08:48:49.781Z,180
2022-10-07T08:58:27.659Z,185.63
2022-10-07T09:08:05.268Z,191.25
2022-10-07T09:17:43.732Z,202.5
2022-10-07T09:27:21.730Z,213.75
2022-10-07T09:37:00.089Z,230.63
2022-10-07T09:46:38.440Z,241.88
2022-10-07T09:56:16.893Z,264.38
2022-10-07T10:05:56.012Z,286.88
2022-10-07T10:15:34.881Z,309.38
2022-10-07T10:25:18.474Z,3825
2022-10-07T10:35:30.155Z,3875.63
2022-10-07T10:45:19.090Z,4072.5
2022-10-07T11:04:44.464Z,3600
2022-10-07T11:14:21.282Z,4061.25
2022-10-07T11:24:03.287Z,3470.63
2022-10-07T11:33:38.041Z,3358.13
2022-10-07T11:43:16.848Z,2081.25
2022-10-07T12:02:28.804Z,2610
2022-10-07T12:12:17.922Z,3521.25
2022-10-07T12:41:19.893Z,4168.13
2022-10-07T12:50:49.024Z,2728.13
2022-10-07T13:00:29.132Z,2986.88
2022-10-07T13:19:44.658Z,3071.25
2022-10-07T13:29:25.049Z,3133.13
2022-10-07T13:39:04.921Z,3273.75
2022-10-07T13:48:45.512Z,2986.88
2022-10-07T13:58:15.066Z,1350
2022-10-07T14:07:43.524Z,2576.25
2022-10-07T14:17:14.698Z,1260
2022-10-07T14:26:31.309Z,354.38
2022-10-07T14:36:02.241Z,2503.13
2022-10-07T14:55:13.982Z,630
2022-10-07T15:14:25.341Z,601.88
2022-10-07T15:24:00.677Z,258.75
2022-10-07T15:33:32.898Z,196.88
2022-10-07T15:43:07.146Z,146.25
2022-10-07T15:52:42.243Z,112.5
2022-10-07T16:02:17.298Z,84.38
2022-10-07T16:11:52.479Z,61.88
2022-10-07T16:21:28.831Z,39.38
2022-10-07T16:31:04.423Z,22.5
2022-10-07T16:40:40.808Z,5.63
2022-10-07T16:50:17.215Z,0
2022-10-07T17:28:42.791Z,0
2022-10-07T17:38:18.635Z,0
2022-10-07T17:47:54.675Z,0
2022-10-07T17:57:31.543Z,0
2022-10-07T18:07:08.290Z,0
2022-10-07T18:26:21.640Z,0
2022-10-07T18:35:59.385Z,0
2022-10-07T18:45:35.723Z,0
2022-10-07T19:04:50.219Z,0
2022-10-07T19:14:27.550Z,0
2022-10-07T19:24:04.170Z,0
2022-10-07T19:33:41.241Z,0
2022-10-07T19:43:17.951Z,0
2022-10-07T19:52:54.275Z,0
2022-10-07T20:02:30.906Z,0
2022-10-07T20:21:45.030Z,0
2022-10-07T20:31:22.201Z,0
2022-10-07T20:40:59.313Z,0
2022-10-07T21:00:13.759Z,0
2022-10-07T21:09:50.401Z,0
2022-10-07T21:19:27.062Z,0
2022-10-07T21:29:03.910Z,0
2022-10-07T21:38:40.837Z,0
2022-10-07T21:48:17.490Z,0
2022-10-07T21:57:54.483Z,0
2022-10-07T22:07:30.733Z,0
2022-10-07T22:17:07.717Z,0
2022-10-07T22:26:44.727Z,0
2022-10-07T22:36:21.405Z,0
2022-10-07T22:45:58.072Z,0
2022-10-07T22:55:35.133Z,0
2022-10-07T23:05:12.117Z,0
2022-10-07T23:14:49.072Z,0
2022-10-07T23:24:26.217Z,0
2022-10-07T23:34:03.333Z,0
2022-10-07T23:43:40.458Z,0
2022-10-07T23:53:17.253Z,0
